Hlavní strana
METAR-TAF:

METAR-TAF

Letiště :

Tetuán, Maroko

zeměpisná šířka: 35-35N, zeměpisná délka: 005-20W, výška: 10 m

Aktuální stav počasí

Zpráva byla vytvořena před 18 minutami, v 04:00 UTC
Východní vítr 11 kt, proměnlivý mezi severovýchodním a východojihovýchodním
Teplota 20°C
Vlhkost vzduchu 88%
Tlak 1021 hPa
Viditelnost: 8000 m
Skoro jasno ve výšce 1300 ft
Oblačno až skoro zataženo ve výšce 2600 ft

METAR: GMTN 260400Z 08011KT 050V110 8000 FEW013 BKN026 20/18 Q1021 NOSIG

Čas: 05:18 (04:18 UTC)


TAF: chybějící

Stav a předpovědi počasí z více než 4 000 letišť (zprávy METAR a TAF).

Červené a žluté tečky na mapě představují dostupné meteorologické stanice.

Když kurzor umístíte na tečku, zobrazí se název stanice.

Pak kliknutím zobrazíte stav a předpověď počasí.

Chcete-li změnit mapu, kliknutím na zelené tlačítko se znaménkem +mapu přiblížíte, kliknutím na zelené tlačítko se znaménkem – mapu oddálíte a kliknutím na zelené šipky přejdete na sousední mapy.


METAR-TAF: